Time;durP1;ratioP1;P1;durP2;ratioP2;P2;SDS_P1;SDS_P2;PMS_P1;PMS_P2;Temp;Humidity;BMP_temperature;BMP_pressure;BME280_temperature;BME280_humidity;BME280_pressure;Samples;Min_cycle;Max_cycle;Signal;HPM_P1;HPM_P2
2021/06/29 00:00:58;;;;;;;8.97;8.37;;;22.60;98.90;;;;;;5052818;28;20509;-75
2021/06/29 00:03:27;;;;;;;9.30;8.50;;;22.60;98.90;;;;;;5051072;28;20971;-74
2021/06/29 00:05:55;;;;;;;9.67;8.97;;;22.50;98.90;;;;;;5053442;28;20434;-75
2021/06/29 00:08:25;;;;;;;9.57;8.87;;;22.50;99.00;;;;;;5052781;28;20939;-75
2021/06/29 00:10:53;;;;;;;9.83;8.53;;;22.50;99.10;;;;;;5053233;28;20462;-74
2021/06/29 00:13:22;;;;;;;10.20;9.50;;;22.50;99.10;;;;;;5051266;28;20480;-75
2021/06/29 00:15:50;;;;;;;9.80;9.00;;;22.40;99.20;;;;;;5052634;28;20447;-75
2021/06/29 00:18:19;;;;;;;9.90;9.00;;;22.40;99.20;;;;;;5052725;28;20435;-75
2021/06/29 00:20:47;;;;;;;10.63;9.83;;;22.40;99.30;;;;;;5052872;28;20487;-74
2021/06/29 00:23:16;;;;;;;11.47;9.20;;;22.40;99.40;;;;;;5052753;28;20842;-75
2021/06/29 00:25:46;;;;;;;9.67;8.97;;;22.40;99.40;;;;;;5052987;28;20435;-75
2021/06/29 00:28:15;;;;;;;10.30;9.50;;;22.30;99.50;;;;;;5053829;28;21005;-74
2021/06/29 00:30:43;;;;;;;10.10;9.27;;;22.30;99.50;;;;;;5053181;28;20554;-75
2021/06/29 00:33:11;;;;;;;11.23;8.87;;;22.30;99.60;;;;;;5053943;28;20485;-74
2021/06/29 00:35:40;;;;;;;10.20;9.33;;;22.20;99.70;;;;;;5052261;28;20455;-74
2021/06/29 00:38:08;;;;;;;9.93;9.03;;;22.20;99.70;;;;;;5052411;28;20484;-75
2021/06/29 00:40:36;;;;;;;11.63;10.73;;;22.20;99.80;;;;;;5052810;28;20477;-74
2021/06/29 00:43:06;;;;;;;11.65;10.65;;;22.20;99.90;;;;;;5055335;28;20435;-75
2021/06/29 00:45:34;;;;;;;10.13;9.33;;;22.20;99.90;;;;;;5056157;28;20235;-75
2021/06/29 00:48:03;;;;;;;11.00;10.10;;;22.20;99.90;;;;;;5056278;28;20488;-75
2021/06/29 00:50:31;;;;;;;11.47;10.60;;;22.20;99.90;;;;;;5054946;28;20454;-74
2021/06/29 00:53:00;;;;;;;10.60;9.80;;;22.10;99.90;;;;;;5056236;28;20442;-75
2021/06/29 00:55:28;;;;;;;11.23;10.33;;;22.10;99.90;;;;;;5056861;28;20430;-75
2021/06/29 00:57:56;;;;;;;10.43;9.63;;;22.10;99.90;;;;;;5056720;28;20472;-75
2021/06/29 01:00:29;;;;;;;11.47;10.37;;;22.10;99.90;;;;;;5058144;28;20466;-74
2021/06/29 01:02:57;;;;;;;11.27;10.37;;;22.10;99.90;;;;;;5054199;28;20465;-74
2021/06/29 01:05:26;;;;;;;10.93;10.13;;;22.00;99.90;;;;;;5055979;28;20443;-75
2021/06/29 01:07:54;;;;;;;10.77;9.87;;;22.00;99.90;;;;;;5055836;28;20927;-74
2021/06/29 01:10:22;;;;;;;11.60;10.70;;;22.00;99.90;;;;;;5055946;28;20450;-75
2021/06/29 01:12:51;;;;;;;11.73;10.73;;;21.90;99.90;;;;;;5056886;28;20454;-75
2021/06/29 01:15:23;;;;;;;11.70;10.80;;;21.90;99.90;;;;;;5056610;28;20466;-75
2021/06/29 01:17:55;;;;;;;11.40;10.53;;;21.90;99.90;;;;;;5056462;28;20442;-75
2021/06/29 01:20:27;;;;;;;10.93;10.00;;;21.90;99.90;;;;;;5057367;28;20480;-75
2021/06/29 01:22:57;;;;;;;12.30;11.30;;;21.90;99.90;;;;;;5054947;28;20796;-74
2021/06/29 01:25:29;;;;;;;11.80;10.90;;;21.90;99.90;;;;;;5056727;28;20274;-75
2021/06/29 01:28:08;;;;;;;11.27;10.37;;;21.90;99.90;;;;;;5055982;28;20950;-75
2021/06/29 01:33:24;;;;;;;10.50;9.70;;;21.80;99.90;;;;;;5056478;28;20422;-75
2021/06/29 01:35:53;;;;;;;10.70;9.90;;;21.80;99.90;;;;;;5055335;28;20447;-75
2021/06/29 01:38:25;;;;;;;11.63;10.73;;;21.80;99.90;;;;;;5054415;28;20461;-74
2021/06/29 01:40:53;;;;;;;12.37;11.47;;;21.80;99.90;;;;;;5054120;28;21048;-74
2021/06/29 01:43:24;;;;;;;11.30;10.50;;;21.80;99.90;;;;;;5055959;28;20474;-75
2021/06/29 01:45:54;;;;;;;12.67;11.47;;;21.70;99.90;;;;;;5054272;28;20465;-74
2021/06/29 01:48:24;;;;;;;12.70;11.80;;;21.70;99.90;;;;;;5056734;28;20923;-74
2021/06/29 01:50:57;;;;;;;12.37;11.17;;;21.70;99.90;;;;;;5055718;28;20473;-75
2021/06/29 01:53:25;;;;;;;13.00;12.00;;;21.70;99.90;;;;;;5055388;28;20422;-74
2021/06/29 01:55:54;;;;;;;12.83;11.57;;;21.70;99.90;;;;;;5055492;28;20450;-75
2021/06/29 01:58:25;;;;;;;11.47;10.57;;;21.70;99.90;;;;;;5055448;28;20840;-75
2021/06/29 02:00:55;;;;;;;13.00;11.90;;;21.60;99.90;;;;;;5055293;28;20521;-75
2021/06/29 02:03:23;;;;;;;12.03;10.93;;;21.60;99.90;;;;;;5054032;28;20456;-75
2021/06/29 02:53:45;;;;;;;13.20;12.17;;;21.40;99.90;;;;;;4352663;26;20475;-74
2021/06/29 02:58:56;;;;;;;13.73;12.43;;;21.40;99.90;;;;;;5033911;28;20502;-74
2021/06/29 03:01:24;;;;;;;12.93;11.90;;;21.30;99.90;;;;;;5034038;28;20507;-74
2021/06/29 03:03:53;;;;;;;12.73;11.63;;;21.30;99.90;;;;;;5032643;28;20451;-74
2021/06/29 03:06:21;;;;;;;12.57;11.50;;;21.30;99.90;;;;;;5033848;28;20443;-74
2021/06/29 03:08:51;;;;;;;12.70;11.70;;;21.30;99.90;;;;;;5021371;28;20448;-74
2021/06/29 03:11:19;;;;;;;13.00;11.90;;;21.30;99.90;;;;;;5022472;28;20455;-74
2021/06/29 03:13:47;;;;;;;14.10;12.90;;;21.30;99.90;;;;;;5032725;28;20443;-74
2021/06/29 03:16:16;;;;;;;12.47;11.50;;;21.30;99.90;;;;;;5032331;28;20828;-74
2021/06/29 03:18:45;;;;;;;12.73;11.73;;;21.30;99.90;;;;;;5034575;28;20442;-74
2021/06/29 03:21:13;;;;;;;13.47;12.37;;;21.30;99.90;;;;;;5032523;28;20536;-74
2021/06/29 03:23:42;;;;;;;13.33;12.33;;;21.30;99.90;;;;;;5032279;28;20450;-74
2021/06/29 03:26:11;;;;;;;14.05;12.95;;;21.30;99.90;;;;;;5032316;28;20492;-74
2021/06/29 03:28:40;;;;;;;13.37;12.37;;;21.30;99.90;;;;;;5033425;28;20195;-74
2021/06/29 03:31:08;;;;;;;13.40;12.40;;;21.40;99.90;;;;;;5031983;28;20533;-74
2021/06/29 03:33:36;;;;;;;12.90;11.90;;;21.40;99.90;;;;;;5033865;28;20454;-74
2021/06/29 03:36:32;;;;;;;12.87;11.97;;;21.30;99.90;;;;;;5009591;28;20519;-75
2021/06/29 03:39:00;;;;;;;13.20;12.20;;;21.30;99.90;;;;;;5032021;28;20467;-74
2021/06/29 03:41:29;;;;;;;13.17;12.07;;;21.30;99.90;;;;;;5031979;28;20506;-74
2021/06/29 03:43:58;;;;;;;14.07;12.97;;;21.30;99.90;;;;;;5032011;28;20521;-74
2021/06/29 03:46:26;;;;;;;13.77;12.57;;;21.30;99.90;;;;;;5031945;28;20829;-74
2021/06/29 03:48:54;;;;;;;14.27;13.17;;;21.30;99.90;;;;;;5031875;28;20483;-74
2021/06/29 03:51:23;;;;;;;14.90;13.73;;;21.30;99.90;;;;;;5034006;28;20792;-74
2021/06/29 03:53:51;;;;;;;14.87;13.57;;;21.20;99.90;;;;;;5033233;28;20436;-74
2021/06/29 03:56:28;;;;;;;15.97;14.67;;;21.20;99.90;;;;;;5033159;28;20447;-74
2021/06/29 03:58:59;;;;;;;16.73;15.37;;;21.20;99.90;;;;;;5033742;28;20867;-75
2021/06/29 04:01:28;;;;;;;15.67;14.23;;;21.20;99.90;;;;;;5031682;28;20532;-74
2021/06/29 04:03:58;;;;;;;16.03;14.73;;;21.20;99.90;;;;;;5031982;28;20443;-74
2021/06/29 04:06:28;;;;;;;16.43;15.17;;;21.20;99.90;;;;;;5031950;28;20466;-75
2021/06/29 04:08:58;;;;;;;18.38;16.77;;;21.20;99.90;;;;;;5030866;28;20988;-74
2021/06/29 04:11:27;;;;;;;17.97;16.37;;;21.30;99.90;;;;;;5033335;28;20192;-74
2021/06/29 04:13:58;;;;;;;19.90;18.33;;;21.30;99.90;;;;;;5031899;28;20451;-74
2021/06/29 04:16:26;;;;;;;18.40;16.60;;;21.20;99.90;;;;;;5033330;28;20819;-74
2021/06/29 04:18:54;;;;;;;16.77;15.37;;;21.20;99.90;;;;;;5037151;28;20439;-74
2021/06/29 04:21:24;;;;;;;17.83;16.33;;;21.20;99.90;;;;;;5035183;28;20554;-74
2021/06/29 04:23:53;;;;;;;17.17;15.77;;;21.10;99.90;;;;;;5035789;28;20457;-74
2021/06/29 04:26:21;;;;;;;17.80;16.10;;;21.10;99.90;;;;;;5035862;28;20486;-74
2021/06/29 04:28:51;;;;;;;19.27;17.67;;;21.10;99.90;;;;;;5037232;28;20438;-74
2021/06/29 04:31:21;;;;;;;18.13;16.60;;;21.10;99.90;;;;;;5035646;28;20447;-73
2021/06/29 04:33:50;;;;;;;19.83;17.93;;;21.00;99.90;;;;;;5035626;28;20825;-73
2021/06/29 04:36:19;;;;;;;19.53;17.83;;;21.00;99.90;;;;;;5036794;28;20479;-73
2021/06/29 04:38:47;;;;;;;20.83;18.97;;;21.00;99.90;;;;;;5035682;28;20486;-73
2021/06/29 04:41:15;;;;;;;17.30;15.77;;;21.00;99.90;;;;;;5035473;28;20819;-72
2021/06/29 04:43:44;;;;;;;17.33;15.83;;;20.90;99.90;;;;;;5036216;28;20475;-72
2021/06/29 04:46:14;;;;;;;19.33;17.70;;;20.90;99.90;;;;;;5036670;28;20936;-72
2021/06/29 04:48:43;;;;;;;20.23;18.30;;;20.90;99.90;;;;;;5035562;28;20845;-72
2021/06/29 04:51:12;;;;;;;19.70;17.90;;;20.90;99.90;;;;;;5017083;28;20436;-72
2021/06/29 04:53:40;;;;;;;20.23;18.40;;;20.80;99.90;;;;;;5016675;28;20523;-72
2021/06/29 04:56:16;;;;;;;18.07;16.53;;;20.80;99.90;;;;;;5015450;28;20470;-72
2021/06/29 04:58:45;;;;;;;17.67;16.13;;;20.80;99.90;;;;;;5017193;28;20427;-71
2021/06/29 05:01:14;;;;;;;18.13;16.47;;;20.80;99.90;;;;;;5016274;28;20449;-71
2021/06/29 05:03:43;;;;;;;16.67;15.13;;;20.80;99.90;;;;;;5016410;28;20371;-72
2021/06/29 05:06:12;;;;;;;16.20;14.80;;;20.80;99.90;;;;;;5033069;28;20207;-71
2021/06/29 05:08:40;;;;;;;17.50;15.90;;;20.80;99.90;;;;;;5033799;28;20915;-71
2021/06/29 05:11:11;;;;;;;17.20;15.50;;;20.80;99.90;;;;;;5035082;28;20442;-72
2021/06/29 05:13:39;;;;;;;19.17;17.47;;;20.80;99.90;;;;;;5036146;28;20967;-72
2021/06/29 05:16:07;;;;;;;19.52;17.83;;;20.70;99.90;;;;;;5036207;28;20441;-72
2021/06/29 05:18:35;;;;;;;20.93;18.87;;;20.80;99.90;;;;;;5036095;28;20254;-72
2021/06/29 05:21:06;;;;;;;21.27;19.43;;;20.80;99.90;;;;;;5036281;28;20439;-72
2021/06/29 05:23:36;;;;;;;22.17;20.27;;;20.80;99.90;;;;;;5034774;28;20513;-72
2021/06/29 05:26:04;;;;;;;21.50;19.53;;;20.80;99.90;;;;;;5036494;28;20526;-71
2021/06/29 05:28:32;;;;;;;19.50;17.90;;;20.80;99.90;;;;;;5033715;28;20455;-71
2021/06/29 05:31:01;;;;;;;21.30;19.50;;;20.80;99.90;;;;;;5035843;28;20455;-72
2021/06/29 05:33:29;;;;;;;20.43;18.63;;;20.80;99.90;;;;;;5035771;28;20436;-71
2021/06/29 05:35:57;;;;;;;19.77;17.90;;;20.80;99.90;;;;;;5035692;28;20435;-72
2021/06/29 05:38:27;;;;;;;20.50;18.80;;;20.70;99.90;;;;;;5035468;28;20451;-72
2021/06/29 05:40:55;;;;;;;18.67;17.17;;;20.80;99.90;;;;;;5035538;28;20454;-72
2021/06/29 05:43:23;;;;;;;18.93;17.47;;;20.70;99.90;;;;;;5035683;28;20565;-72
2021/06/29 05:45:51;;;;;;;17.37;15.93;;;20.80;99.90;;;;;;5035880;28;20436;-72
2021/06/29 05:48:19;;;;;;;18.40;16.80;;;20.80;99.90;;;;;;5034259;28;20448;-72
2021/06/29 05:50:47;;;;;;;17.37;15.80;;;20.80;99.90;;;;;;5035377;28;20474;-72
2021/06/29 05:53:16;;;;;;;16.67;15.27;;;20.80;99.90;;;;;;5035436;28;20482;-72
2021/06/29 05:55:45;;;;;;;17.83;16.40;;;20.80;99.90;;;;;;5035226;28;20432;-72
2021/06/29 05:58:15;;;;;;;15.90;14.60;;;20.80;99.90;;;;;;5034927;28;20440;-72
2021/06/29 06:00:44;;;;;;;16.80;15.50;;;20.80;99.90;;;;;;5035225;28;20975;-72
2021/06/29 06:03:12;;;;;;;16.23;14.83;;;20.80;99.90;;;;;;5033884;28;20481;-72
2021/06/29 06:05:40;;;;;;;15.97;14.67;;;20.80;99.90;;;;;;5033703;28;20886;-72
2021/06/29 06:08:09;;;;;;;17.50;16.20;;;20.80;99.90;;;;;;5035079;28;20534;-72
2021/06/29 06:10:37;;;;;;;17.27;15.77;;;20.80;99.90;;;;;;5033792;28;20462;-72
2021/06/29 06:13:07;;;;;;;17.52;16.13;;;20.80;99.90;;;;;;5033586;28;21013;-72
2021/06/29 06:15:39;;;;;;;18.10;16.60;;;20.80;99.90;;;;;;5035159;28;20269;-72
2021/06/29 06:18:07;;;;;;;16.20;14.90;;;20.80;99.90;;;;;;5035031;28;20432;-72
2021/06/29 06:20:36;;;;;;;15.80;14.47;;;20.80;99.90;;;;;;5035078;28;20470;-72
2021/06/29 06:23:06;;;;;;;14.70;13.40;;;20.80;99.90;;;;;;5033653;28;20475;-72
2021/06/29 06:25:34;;;;;;;14.40;13.30;;;20.80;99.90;;;;;;5034981;28;20446;-72
2021/06/29 06:28:04;;;;;;;15.00;13.57;;;20.80;99.90;;;;;;5033418;28;20550;-72
2021/06/29 06:30:34;;;;;;;14.33;13.07;;;20.90;99.90;;;;;;5034679;28;20558;-72
2021/06/29 06:33:02;;;;;;;15.37;13.77;;;20.90;99.90;;;;;;5033429;28;20490;-72
2021/06/29 06:35:30;;;;;;;12.50;11.40;;;20.90;99.90;;;;;;5034777;28;20436;-72
2021/06/29 06:37:59;;;;;;;14.30;13.20;;;20.90;99.90;;;;;;5034680;28;20440;-72
2021/06/29 06:40:27;;;;;;;14.47;13.17;;;20.90;99.90;;;;;;5032937;28;20847;-72
2021/06/29 06:42:55;;;;;;;13.20;12.20;;;20.90;99.90;;;;;;5033641;28;20480;-72
2021/06/29 06:45:24;;;;;;;13.63;12.43;;;21.00;99.90;;;;;;5034699;28;20467;-72
2021/06/29 06:47:54;;;;;;;13.20;12.20;;;21.00;99.90;;;;;;5033106;28;20447;-72
2021/06/29 06:50:23;;;;;;;14.07;12.87;;;21.00;99.90;;;;;;5033094;28;20459;-72
2021/06/29 06:52:52;;;;;;;13.60;12.50;;;21.00;99.90;;;;;;5034357;28;20547;-72
2021/06/29 06:55:25;;;;;;;15.20;14.07;;;21.10;99.90;;;;;;5034227;28;20478;-72
2021/06/29 06:57:53;;;;;;;14.23;13.03;;;21.10;99.90;;;;;;5034301;28;20770;-72
2021/06/29 07:00:22;;;;;;;14.07;12.90;;;21.10;99.90;;;;;;5034139;28;20983;-72
2021/06/29 07:02:51;;;;;;;13.93;12.90;;;21.10;99.90;;;;;;5034032;28;20435;-72
2021/06/29 07:05:20;;;;;;;15.23;14.03;;;21.10;99.90;;;;;;5032792;28;20978;-72
2021/06/29 07:07:48;;;;;;;14.90;13.70;;;21.20;99.90;;;;;;5034340;28;20463;-72
2021/06/29 07:10:17;;;;;;;15.68;14.27;;;21.20;99.90;;;;;;5033747;28;20444;-72
2021/06/29 07:12:45;;;;;;;14.60;13.40;;;21.30;99.90;;;;;;5032937;28;20292;-72
2021/06/29 07:15:13;;;;;;;14.70;13.50;;;21.30;99.90;;;;;;5033927;28;20439;-72
2021/06/29 07:17:42;;;;;;;14.60;13.40;;;21.30;99.90;;;;;;5034035;28;20974;-72
2021/06/29 07:20:12;;;;;;;15.50;14.20;;;21.30;99.90;;;;;;5033832;28;20458;-72
2021/06/29 07:22:41;;;;;;;13.90;12.70;;;21.40;99.90;;;;;;5033785;28;20861;-72
2021/06/29 07:25:10;;;;;;;13.53;12.43;;;21.40;99.90;;;;;;5033931;28;20517;-72
2021/06/29 07:27:38;;;;;;;14.37;13.17;;;21.40;99.90;;;;;;5033899;28;20474;-72
2021/06/29 07:30:08;;;;;;;14.53;13.37;;;21.40;99.90;;;;;;5032544;28;20545;-72
2021/06/29 07:32:41;;;;;;;14.53;13.23;;;21.40;99.90;;;;;;5032304;28;20542;-72
2021/06/29 07:35:10;;;;;;;15.33;14.10;;;21.40;99.90;;;;;;5034185;28;20830;-72
2021/06/29 07:37:38;;;;;;;15.67;14.47;;;21.50;99.90;;;;;;5032237;28;20538;-72
2021/06/29 07:40:11;;;;;;;15.17;13.90;;;21.50;99.90;;;;;;5033752;28;20896;-72
2021/06/29 07:42:39;;;;;;;15.23;14.03;;;21.50;99.90;;;;;;5033903;28;20510;-72
2021/06/29 07:45:09;;;;;;;16.50;15.00;;;21.60;99.90;;;;;;5033516;28;20824;-72
2021/06/29 07:47:37;;;;;;;15.67;14.37;;;21.60;99.90;;;;;;5033692;28;20435;-72
2021/06/29 07:50:08;;;;;;;16.20;14.90;;;21.60;99.90;;;;;;5032050;28;20507;-72
2021/06/29 07:52:37;;;;;;;15.87;14.63;;;21.60;99.90;;;;;;5032977;28;20473;-72
2021/06/29 07:55:08;;;;;;;17.07;15.77;;;21.70;99.90;;;;;;5032288;28;20441;-72
2021/06/29 07:57:36;;;;;;;16.60;15.20;;;21.70;99.90;;;;;;5033617;28;20420;-72
2021/06/29 08:00:06;;;;;;;16.67;15.37;;;21.70;99.90;;;;;;5033804;28;20466;-72
2021/06/29 08:02:39;;;;;;;16.10;14.77;;;21.70;99.90;;;;;;5033293;28;20494;-72
2021/06/29 08:05:08;;;;;;;16.40;15.00;;;21.80;99.90;;;;;;5033147;28;20474;-72
2021/06/29 08:07:37;;;;;;;16.93;15.53;;;21.80;99.90;;;;;;5033463;28;20436;-72
2021/06/29 08:10:06;;;;;;;16.90;15.40;;;21.90;99.90;;;;;;5031855;28;20577;-72
2021/06/29 08:12:36;;;;;;;17.60;16.30;;;21.90;99.90;;;;;;5033342;28;20477;-72
2021/06/29 08:15:06;;;;;;;15.97;14.77;;;21.90;99.90;;;;;;5033739;28;20432;-72
2021/06/29 08:17:39;;;;;;;15.80;14.30;;;22.00;99.90;;;;;;5033700;28;20419;-72
2021/06/29 08:20:09;;;;;;;18.50;16.70;;;22.00;99.90;;;;;;5031791;28;20456;-72
2021/06/29 08:22:37;;;;;;;16.67;15.37;;;22.10;99.90;;;;;;5033375;28;20439;-72
2021/06/29 08:25:07;;;;;;;17.80;16.30;;;22.10;99.90;;;;;;5033230;28;21091;-72
2021/06/29 08:27:37;;;;;;;17.60;16.10;;;22.10;99.90;;;;;;5033474;28;20998;-72
2021/06/29 08:30:12;;;;;;;17.90;16.27;;;22.20;99.90;;;;;;5032495;28;20471;-72
2021/06/29 08:32:40;;;;;;;18.97;17.43;;;22.20;99.90;;;;;;5035004;28;20516;-74
2021/06/29 08:35:10;;;;;;;19.60;18.00;;;22.20;99.90;;;;;;5033233;28;20442;-75
2021/06/29 08:37:38;;;;;;;17.53;16.13;;;22.30;99.90;;;;;;5048245;28;20523;-75
2021/06/29 08:40:09;;;;;;;17.10;15.80;;;22.30;99.90;;;;;;5036490;28;21089;-74
2021/06/29 08:42:39;;;;;;;18.30;16.70;;;22.30;99.90;;;;;;5033116;28;20514;-75
2021/06/29 08:45:09;;;;;;;18.10;16.60;;;22.40;99.90;;;;;;5034632;28;20971;-76
2021/06/29 08:47:38;;;;;;;17.37;15.97;;;22.40;99.90;;;;;;5033035;28;20463;-74
2021/06/29 08:50:10;;;;;;;18.60;17.20;;;22.50;99.90;;;;;;5032785;28;20460;-74
2021/06/29 08:52:38;;;;;;;16.67;15.37;;;22.50;99.90;;;;;;5034729;28;20876;-75
2021/06/29 08:55:08;;;;;;;16.33;15.03;;;22.60;99.90;;;;;;5048097;28;20542;-75
2021/06/29 08:57:36;;;;;;;18.57;17.10;;;22.70;99.90;;;;;;5032721;28;20461;-75
2021/06/29 09:00:09;;;;;;;17.83;16.50;;;22.70;99.90;;;;;;5032304;28;20537;-75
2021/06/29 09:02:39;;;;;;;18.13;16.73;;;22.70;99.90;;;;;;5034188;28;20839;-75
2021/06/29 09:05:20;;;;;;;17.03;15.53;;;22.70;99.90;;;;;;5038224;28;20963;-76
2021/06/29 09:07:58;;;;;;;17.20;15.83;;;22.70;99.90;;;;;;5035620;28;20875;-75
2021/06/29 09:10:27;;;;;;;18.00;16.50;;;22.70;99.90;;;;;;5035409;28;20491;-75
2021/06/29 09:12:55;;;;;;;17.13;15.77;;;22.80;99.90;;;;;;5052966;28;20633;-75
2021/06/29 09:15:29;;;;;;;17.43;16.13;;;22.80;99.90;;;;;;5036419;28;20532;-75
2021/06/29 09:17:59;;;;;;;18.37;16.80;;;22.80;99.90;;;;;;5037977;28;20434;-75
2021/06/29 09:20:29;;;;;;;17.50;16.20;;;22.80;99.90;;;;;;5036427;28;20522;-76
2021/06/29 09:23:01;;;;;;;17.80;16.40;;;22.80;99.90;;;;;;5036334;28;20502;-75
2021/06/29 09:25:30;;;;;;;15.77;14.53;;;22.80;99.90;;;;;;5036289;28;20468;-76
2021/06/29 09:27:58;;;;;;;16.00;14.70;;;22.90;99.90;;;;;;5036254;28;20423;-75
2021/06/29 09:30:42;;;;;;;16.00;14.90;;;22.90;99.90;;;;;;5036405;28;20815;-76
2021/06/29 09:33:17;;;;;;;14.83;13.70;;;22.90;99.90;;;;;;5035904;28;20870;-75
2021/06/29 09:35:49;;;;;;;16.30;15.00;;;22.90;99.90;;;;;;5036020;28;20451;-75
2021/06/29 09:38:21;;;;;;;15.27;14.07;;;22.90;99.90;;;;;;5037678;28;20456;-75
2021/06/29 09:41:05;;;;;;;14.60;13.40;;;22.90;99.90;;;;;;5035678;28;20455;-75
2021/06/29 09:43:36;;;;;;;13.27;12.17;;;22.90;99.90;;;;;;5035795;28;20475;-76
2021/06/29 09:46:08;;;;;;;15.60;14.40;;;22.90;99.90;;;;;;5035213;28;20524;-75
2021/06/29 09:48:40;;;;;;;15.30;14.20;;;22.90;99.90;;;;;;5034117;28;20435;-75
2021/06/29 09:51:15;;;;;;;15.37;13.97;;;23.00;99.90;;;;;;5035470;28;20511;-75
2021/06/29 09:53:44;;;;;;;15.23;14.05;;;23.00;99.90;;;;;;5033362;28;20540;-75
2021/06/29 09:56:15;;;;;;;14.30;13.20;;;23.00;99.90;;;;;;5034128;28;20559;-75
2021/06/29 09:58:46;;;;;;;13.80;12.73;;;23.10;99.90;;;;;;5035500;28;20428;-75
2021/06/29 10:01:18;;;;;;;12.83;11.93;;;23.10;99.90;;;;;;5038610;28;20750;-75
2021/06/29 10:03:50;;;;;;;13.53;12.43;;;23.10;99.90;;;;;;5035232;28;20428;-75
2021/06/29 10:06:20;;;;;;;13.13;12.13;;;23.10;99.90;;;;;;5037383;28;20511;-76
2021/06/29 10:08:49;;;;;;;13.27;12.27;;;23.10;99.90;;;;;;5035752;28;20271;-76
2021/06/29 10:11:23;;;;;;;12.27;11.27;;;23.10;99.90;;;;;;5035413;28;21023;-75
2021/06/29 10:13:54;;;;;;;12.80;11.80;;;23.10;99.90;;;;;;5036861;28;20866;-76
2021/06/29 10:16:25;;;;;;;13.33;12.33;;;23.10;99.90;;;;;;5035250;28;20897;-76
2021/06/29 10:19:14;;;;;;;14.00;12.80;;;23.10;99.90;;;;;;5036379;28;20435;-76
2021/06/29 10:21:46;;;;;;;14.07;12.97;;;23.10;99.90;;;;;;5035574;28;20423;-75
2021/06/29 10:24:17;;;;;;;14.63;13.43;;;23.10;99.90;;;;;;5035185;28;20451;-76
2021/06/29 10:26:47;;;;;;;15.03;13.83;;;23.10;99.90;;;;;;5039209;28;20467;-76
2021/06/29 10:29:17;;;;;;;13.67;12.70;;;23.10;99.90;;;;;;5041537;28;20444;-75
2021/06/29 10:31:49;;;;;;;14.37;13.37;;;23.10;99.90;;;;;;5035768;28;20455;-75
2021/06/29 10:34:19;;;;;;;15.30;14.10;;;23.10;99.90;;;;;;5044550;28;20458;-76
2021/06/29 10:36:49;;;;;;;14.53;13.23;;;23.20;99.90;;;;;;5041173;28;20448;-76
2021/06/29 10:39:20;;;;;;;15.23;14.13;;;23.20;99.90;;;;;;5040767;28;20455;-75
2021/06/29 10:41:51;;;;;;;13.70;12.63;;;23.20;99.90;;;;;;5035564;28;20494;-75
2021/06/29 10:44:21;;;;;;;15.60;14.50;;;23.20;99.90;;;;;;5034858;28;20420;-75
2021/06/29 10:46:53;;;;;;;16.00;14.80;;;23.20;99.90;;;;;;5035464;28;20482;-75
2021/06/29 10:49:46;;;;;;;15.32;14.02;;;23.20;99.90;;;;;;5049308;28;21003;-75
2021/06/29 10:52:37;;;;;;;15.67;14.47;;;23.30;99.90;;;;;;5037539;28;20669;-76
2021/06/29 10:55:07;;;;;;;15.20;14.00;;;23.30;99.90;;;;;;5034609;28;20407;-75
2021/06/29 10:57:42;;;;;;;14.67;13.57;;;23.30;99.90;;;;;;5036462;28;20542;-75
2021/06/29 11:00:31;;;;;;;14.73;13.57;;;23.30;99.90;;;;;;5038775;28;20454;-75
2021/06/29 11:03:03;;;;;;;11.75;10.95;;;23.30;99.90;;;;;;5033555;28;20465;-75
2021/06/29 11:05:33;;;;;;;11.23;10.43;;;23.40;99.90;;;;;;5037217;28;20204;-75
2021/06/29 11:08:13;;;;;;;12.13;11.27;;;23.40;99.90;;;;;;5034320;28;20459;-75
2021/06/29 11:10:45;;;;;;;12.90;11.90;;;23.40;99.90;;;;;;5033951;28;20887;-75
2021/06/29 11:13:14;;;;;;;12.23;11.33;;;23.40;99.90;;;;;;5035935;28;20543;-75
2021/06/29 11:15:46;;;;;;;12.90;11.90;;;23.40;99.90;;;;;;5034186;28;20493;-74
2021/06/29 11:18:16;;;;;;;12.87;11.67;;;23.50;99.90;;;;;;5035817;28;20432;-75
2021/06/29 11:20:46;;;;;;;14.23;13.03;;;23.50;99.90;;;;;;5034075;28;20525;-75
2021/06/29 11:23:20;;;;;;;13.77;12.80;;;23.50;99.90;;;;;;5033752;28;20419;-74
2021/06/29 11:25:53;;;;;;;13.87;12.87;;;23.50;99.90;;;;;;5054086;28;20470;-75
2021/06/29 11:28:44;;;;;;;13.20;12.30;;;23.50;99.90;;;;;;5037313;28;20454;-75
2021/06/29 11:31:26;;;;;;;15.77;14.57;;;23.50;99.90;;;;;;5037747;28;20557;-75
2021/06/29 11:33:58;;;;;;;15.43;14.23;;;23.60;99.90;;;;;;5036337;28;20445;-75
2021/06/29 11:36:46;;;;;;;15.07;13.97;;;23.60;99.90;;;;;;5033607;28;20526;-75
2021/06/29 11:39:35;;;;;;;16.60;15.40;;;23.60;99.90;;;;;;5034995;28;21086;-75
2021/06/29 11:42:10;;;;;;;15.73;14.57;;;23.70;99.90;;;;;;5033781;28;20486;-76
2021/06/29 11:44:41;;;;;;;16.80;15.50;;;23.70;99.90;;;;;;5032983;28;20450;-75
2021/06/29 11:47:13;;;;;;;17.47;16.07;;;23.80;99.90;;;;;;5033824;28;20304;-76
2021/06/29 11:49:52;;;;;;;17.33;15.87;;;23.80;99.90;;;;;;5033512;28;20458;-76
2021/06/29 11:52:31;;;;;;;16.00;14.80;;;23.80;99.90;;;;;;5049291;28;20475;-75
2021/06/29 11:55:12;;;;;;;16.30;15.10;;;23.80;99.90;;;;;;5033366;28;20454;-75
2021/06/29 11:57:42;;;;;;;17.20;15.80;;;23.90;99.90;;;;;;5035415;28;20433;-75
2021/06/29 12:00:21;;;;;;;15.63;14.43;;;23.90;99.90;;;;;;5033531;28;20244;-75
2021/06/29 12:02:54;;;;;;;16.07;14.77;;;24.00;99.90;;;;;;5032389;28;20489;-75
2021/06/29 12:05:26;;;;;;;16.90;15.50;;;24.00;99.90;;;;;;5034313;28;20491;-76
2021/06/29 12:07:55;;;;;;;15.33;14.17;;;24.00;99.90;;;;;;5033737;28;20869;-74
2021/06/29 12:10:26;;;;;;;14.50;13.40;;;24.00;99.90;;;;;;5034768;28;20563;-76
2021/06/29 12:12:56;;;;;;;13.97;12.80;;;24.00;99.90;;;;;;5033178;28;20502;-75
2021/06/29 12:15:26;;;;;;;13.80;12.70;;;24.10;99.90;;;;;;5033153;28;20442;-75
2021/06/29 12:18:02;;;;;;;12.03;11.13;;;24.10;99.90;;;;;;5035778;28;20888;-75
2021/06/29 12:20:34;;;;;;;12.13;11.23;;;24.20;99.90;;;;;;5032365;28;20510;-75
2021/06/29 12:23:04;;;;;;;13.67;12.63;;;24.20;99.90;;;;;;5035842;28;20801;-75
2021/06/29 12:25:35;;;;;;;12.73;11.73;;;24.30;99.90;;;;;;5033051;28;20862;-75
2021/06/29 12:28:05;;;;;;;11.80;10.93;;;24.30;99.90;;;;;;5031828;28;20447;-76
2021/06/29 12:30:36;;;;;;;12.40;11.40;;;24.30;99.90;;;;;;5035044;28;20471;-75
2021/06/29 12:33:23;;;;;;;13.33;12.47;;;24.40;99.90;;;;;;5033436;28;20444;-75
2021/06/29 12:35:59;;;;;;;14.40;13.40;;;24.40;99.90;;;;;;5033217;28;20444;-75
2021/06/29 12:38:30;;;;;;;14.20;13.10;;;24.40;99.90;;;;;;5038300;28;20423;-76
2021/06/29 12:40:59;;;;;;;12.60;11.73;;;24.40;99.90;;;;;;5037054;28;20455;-76
2021/06/29 12:43:33;;;;;;;14.50;13.50;;;24.40;99.90;;;;;;5038410;28;20463;-76
2021/06/29 12:46:17;;;;;;;13.67;12.70;;;24.40;99.90;;;;;;5036999;28;20846;-76
2021/06/29 12:48:59;;;;;;;13.63;12.63;;;24.40;99.90;;;;;;5036394;28;20920;-75
2021/06/29 12:51:29;;;;;;;11.27;10.57;;;24.30;99.90;;;;;;5052937;28;20558;-75
2021/06/29 12:54:00;;;;;;;13.10;12.20;;;24.30;99.90;;;;;;5037178;28;20469;-77
2021/06/29 12:56:34;;;;;;;13.43;12.40;;;24.40;99.90;;;;;;5038148;28;20443;-76
2021/06/29 12:59:03;;;;;;;13.50;12.30;;;24.40;99.90;;;;;;5036371;28;20454;-75
2021/06/29 13:01:34;;;;;;;13.40;12.43;;;24.40;99.90;;;;;;5036399;28;20892;-75
2021/06/29 13:04:09;;;;;;;12.57;11.67;;;24.50;99.90;;;;;;5035132;28;20550;-75
2021/06/29 13:06:39;;;;;;;11.87;10.90;;;24.60;99.90;;;;;;5034929;28;20455;-76
2021/06/29 13:09:10;;;;;;;10.17;9.47;;;24.70;99.90;;;;;;5036666;28;20501;-76
2021/06/29 13:11:39;;;;;;;12.33;9.20;;;24.70;99.90;;;;;;5036449;28;20455;-76
2021/06/29 13:14:09;;;;;;;11.03;10.13;;;24.70;99.90;;;;;;5037217;28;20477;-75
2021/06/29 13:16:38;;;;;;;9.20;8.60;;;24.70;99.90;;;;;;5036193;28;20443;-74
2021/06/29 13:19:18;;;;;;;9.70;8.90;;;24.60;99.90;;;;;;5035956;28;20459;-75
2021/06/29 13:21:54;;;;;;;8.10;7.60;;;24.60;99.90;;;;;;5037817;28;20939;-76
2021/06/29 13:24:23;;;;;;;8.07;7.57;;;24.60;99.90;;;;;;5036460;28;20419;-75
2021/06/29 13:26:55;;;;;;;8.60;8.00;;;24.60;99.90;;;;;;5037837;28;20469;-75
2021/06/29 13:29:28;;;;;;;8.20;7.60;;;24.50;99.90;;;;;;5034655;28;21082;-75
2021/06/29 13:31:57;;;;;;;8.57;7.97;;;24.50;99.90;;;;;;5051324;28;20467;-76
2021/06/29 13:34:30;;;;;;;9.83;9.23;;;24.50;99.90;;;;;;5036063;28;20423;-75
2021/06/29 13:37:18;;;;;;;11.10;10.20;;;24.50;99.90;;;;;;5050374;28;20468;-76
2021/06/29 13:39:47;;;;;;;11.40;10.43;;;24.60;99.90;;;;;;5036025;28;20487;-74